Time;durP1;ratioP1;P1;durP2;ratioP2;P2;SDS_P1;SDS_P2;PMS_P1;PMS_P2;Temp;Humidity;BMP_temperature;BMP_pressure;BME280_temperature;BME280_humidity;BME280_pressure;Samples;Min_cycle;Max_cycle;Signal;HPM_P1;HPM_P2
2021/12/28 00:02:25;;;;;;;45.63;19.27;;;;;;;-3.34;84.11;100410.28;125169;1102;104011;-77
2021/12/28 00:04:55;;;;;;;47.23;21.30;;;;;;;-3.34;83.95;100404.27;125107;1102;104050;-76
2021/12/28 00:07:24;;;;;;;45.73;19.30;;;;;;;-3.33;83.52;100406.08;125043;1102;112384;-77
2021/12/28 00:09:54;;;;;;;45.13;17.93;;;;;;;-3.32;83.74;100408.78;125119;1102;103958;-77
2021/12/28 00:12:23;;;;;;;44.37;17.53;;;;;;;-3.36;83.94;100403.23;125057;1102;104009;-77
2021/12/28 00:15:04;;;;;;;46.93;19.77;;;;;;;-3.36;84.06;100416.06;125149;1102;103957;-77
2021/12/28 00:20:22;;;;;;;43.10;18.20;;;;;;;-3.35;84.37;100415.28;125080;1102;103980;-77
2021/12/28 00:22:52;;;;;;;47.73;19.90;;;;;;;-3.34;84.56;100417.98;125096;1102;103941;-77
2021/12/28 00:25:21;;;;;;;42.77;16.83;;;;;;;-3.29;84.11;100416.75;125143;1102;104414;-77
2021/12/28 00:27:52;;;;;;;43.70;18.37;;;;;;;-3.31;84.02;100422.50;125117;1102;107941;-77
2021/12/28 00:30:27;;;;;;;36.83;16.03;;;;;;;-3.32;83.23;100418.12;125207;1102;104018;-77
2021/12/28 00:33:00;;;;;;;41.03;17.33;;;;;;;-3.32;83.93;100423.25;125180;1102;103935;-77
2021/12/28 00:35:36;;;;;;;36.00;12.77;;;;;;;-3.35;83.89;100423.91;125209;1102;104017;-77
2021/12/28 00:38:09;;;;;;;37.20;15.83;;;;;;;-3.39;83.38;100418.36;125119;1102;117934;-77
2021/12/28 00:40:39;;;;;;;40.23;18.20;;;;;;;-3.39;83.15;100415.80;124953;1102;104038;-77
2021/12/28 00:43:09;;;;;;;40.70;16.97;;;;;;;-3.42;82.92;100411.28;125176;1102;103977;-78
2021/12/28 00:45:39;;;;;;;38.70;16.13;;;;;;;-3.42;83.73;100415.52;125170;1102;103970;-77
2021/12/28 00:48:09;;;;;;;38.40;15.70;;;;;;;-3.46;83.37;100404.98;125162;1102;103932;-78
2021/12/28 00:50:39;;;;;;;38.33;15.63;;;;;;;-3.48;83.55;100403.03;125088;1102;104037;-78
2021/12/28 00:53:10;;;;;;;37.40;16.37;;;;;;;-3.47;83.32;100405.73;125119;1102;103979;-78
2021/12/28 00:55:40;;;;;;;34.57;14.43;;;;;;;-3.46;83.89;100393.80;125219;1102;104024;-78
2021/12/28 00:58:12;;;;;;;37.80;15.17;;;;;;;-3.46;83.49;100394.72;125105;1102;103993;-78
2021/12/28 01:00:41;;;;;;;38.13;15.77;;;;;;;-3.45;83.59;100401.62;125214;1102;104104;-78
2021/12/28 01:03:12;;;;;;;38.00;14.97;;;;;;;-3.45;83.22;100400.73;125192;1102;103928;-78
2021/12/28 01:05:42;;;;;;;36.97;16.07;;;;;;;-3.46;83.00;100399.85;125142;1101;104431;-76
2021/12/28 01:08:12;;;;;;;38.73;15.20;;;;;;;-3.48;83.82;100400.47;124963;1102;105351;-78
2021/12/28 01:10:45;;;;;;;39.63;15.30;;;;;;;-3.54;83.40;100399.91;124995;1102;103929;-77
2021/12/28 01:13:17;;;;;;;37.30;15.80;;;;;;;-3.57;82.98;100394.51;125222;1102;103938;-78
2021/12/28 01:15:50;;;;;;;38.53;15.20;;;;;;;-3.58;83.38;100393.63;125147;1102;103929;-78
2021/12/28 01:18:20;;;;;;;38.00;15.53;;;;;;;-3.60;83.80;100387.42;125106;1102;103964;-78
2021/12/28 01:20:53;;;;;;;37.93;15.93;;;;;;;-3.58;83.90;100385.00;125155;1102;103980;-76
2021/12/28 01:23:22;;;;;;;33.70;14.10;;;;;;;-3.55;83.64;100382.71;125212;1102;103931;-76
2021/12/28 01:25:52;;;;;;;38.20;14.77;;;;;;;-3.57;84.08;100374.88;125177;1102;103938;-77
2021/12/28 01:28:22;;;;;;;35.63;13.60;;;;;;;-3.58;83.50;100377.30;125193;1102;103957;-78
2021/12/28 01:30:51;;;;;;;35.67;13.97;;;;;;;-3.56;83.71;100376.69;125158;1102;103928;-78
2021/12/28 01:33:21;;;;;;;37.70;15.50;;;;;;;-3.54;83.43;100377.72;125157;1102;103938;-78
2021/12/28 01:35:52;;;;;;;35.33;15.70;;;;;;;-3.51;82.88;100370.30;125238;1102;104675;-77
2021/12/28 01:38:24;;;;;;;36.90;14.87;;;;;;;-3.45;83.74;100377.65;125117;1101;103925;-77
2021/12/28 01:40:56;;;;;;;37.27;14.53;;;;;;;-3.48;83.30;100375.70;125175;1102;103925;-77
2021/12/28 01:43:26;;;;;;;35.47;14.27;;;;;;;-3.48;82.90;100378.27;125168;1102;104031;-77
2021/12/28 01:45:59;;;;;;;37.10;14.80;;;;;;;-3.48;83.20;100374.81;125173;1102;103950;-77
2021/12/28 01:48:35;;;;;;;35.08;14.23;;;;;;;-3.51;83.17;100379.67;125013;1102;104305;-77
2021/12/28 01:51:08;;;;;;;42.07;15.63;;;;;;;-3.52;83.47;100378.78;125228;1102;104734;-77
2021/12/28 01:53:40;;;;;;;40.20;16.63;;;;;;;-3.51;83.57;100380.56;125158;1102;103983;-77
2021/12/28 01:56:13;;;;;;;41.20;16.40;;;;;;;-3.48;83.50;100375.70;125111;1102;103977;-76
2021/12/28 01:58:45;;;;;;;39.60;15.77;;;;;;;-3.47;83.18;100379.19;125126;1102;103981;-76
2021/12/28 02:01:17;;;;;;;39.93;17.13;;;;;;;-3.50;82.98;100369.55;125209;1102;104149;-77
2021/12/28 02:03:48;;;;;;;43.60;17.60;;;;;;;-3.51;82.99;100372.86;125205;1102;103960;-77
2021/12/28 02:06:18;;;;;;;40.37;15.80;;;;;;;-3.47;83.27;100368.92;125207;1102;104094;-76
2021/12/28 02:08:48;;;;;;;40.43;16.70;;;;;;;-3.45;82.71;100364.82;125037;1102;103955;-77
2021/12/28 02:11:20;;;;;;;35.10;15.40;;;;;;;-3.42;83.46;100359.97;125189;1102;103990;-76
2021/12/28 02:13:50;;;;;;;36.43;15.13;;;;;;;-3.42;83.15;100362.53;125155;1102;104060;-76
2021/12/28 02:16:21;;;;;;;35.63;14.67;;;;;;;-3.44;82.70;100366.64;125205;1102;103932;-76
2021/12/28 02:18:52;;;;;;;36.67;14.67;;;;;;;-3.46;82.71;100363.01;125053;1102;104073;-77
2021/12/28 02:21:22;;;;;;;40.37;16.90;;;;;;;-3.51;83.52;100356.58;125163;1102;103939;-77
2021/12/28 02:23:51;;;;;;;44.50;17.13;;;;;;;-3.51;83.23;100354.02;125226;1102;103960;-76
2021/12/28 02:26:21;;;;;;;41.93;16.03;;;;;;;-3.54;82.71;100340.91;125192;1102;104059;-77
2021/12/28 02:28:51;;;;;;;41.47;16.53;;;;;;;-3.55;83.27;100345.16;125140;1102;103993;-77
2021/12/28 02:31:22;;;;;;;45.63;17.90;;;;;;;-3.53;83.28;100352.98;125169;1102;103932;-76
2021/12/28 02:33:52;;;;;;;38.50;16.07;;;;;;;-3.54;83.24;100349.50;125160;1102;103928;-78
2021/12/28 02:36:22;;;;;;;36.37;14.20;;;;;;;-3.54;83.76;100346.05;125122;1102;104104;-76
2021/12/28 02:38:52;;;;;;;39.07;14.87;;;;;;;-3.55;82.66;100347.72;125087;1102;103939;-77
2021/12/28 02:41:24;;;;;;;33.50;13.93;;;;;;;-3.55;82.89;100344.23;125209;1102;103929;-77
2021/12/28 02:44:00;;;;;;;34.53;13.97;;;;;;;-3.57;83.37;100345.77;125222;1102;103938;-77
2021/12/28 02:46:39;;;;;;;34.33;13.23;;;;;;;-3.59;83.44;100343.07;125165;1102;103926;-77
2021/12/28 02:49:10;;;;;;;33.23;13.73;;;;;;;-3.60;83.17;100341.26;124979;1103;103952;-77
2021/12/28 02:51:42;;;;;;;36.87;14.17;;;;;;;-3.58;82.43;100339.75;125121;1102;104057;-77
2021/12/28 02:54:12;;;;;;;34.83;14.87;;;;;;;-3.56;83.08;100325.39;125144;1101;103941;-77
2021/12/28 02:56:42;;;;;;;32.40;15.10;;;;;;;-3.53;82.56;100325.66;125077;1102;104066;-77
2021/12/28 02:59:12;;;;;;;34.03;15.13;;;;;;;-3.50;83.53;100317.34;125099;1102;103980;-77
2021/12/28 03:01:42;;;;;;;32.10;13.03;;;;;;;-3.50;82.41;100322.48;125150;1102;104050;-77
2021/12/28 03:04:14;;;;;;;32.27;12.50;;;;;;;-3.52;82.77;100322.34;125148;1102;103923;-77
2021/12/28 03:06:44;;;;;;;33.13;13.27;;;;;;;-3.55;82.26;100316.02;125106;1102;104041;-77
2021/12/28 03:09:15;;;;;;;30.53;12.73;;;;;;;-3.54;83.07;100317.83;125075;1102;104144;-77
2021/12/28 03:11:45;;;;;;;33.83;13.33;;;;;;;-3.52;82.98;100329.11;125121;1102;104059;-77
2021/12/28 03:14:17;;;;;;;34.70;13.57;;;;;;;-3.55;82.99;100323.71;125162;1102;103936;-77
2021/12/28 03:16:47;;;;;;;32.13;14.07;;;;;;;-3.56;82.53;100320.26;125044;1102;103960;-78
2021/12/28 03:19:18;;;;;;;34.53;14.40;;;;;;;-3.58;82.25;100326.01;125166;1102;103928;-77
2021/12/28 03:21:49;;;;;;;32.00;13.30;;;;;;;-3.57;82.89;100332.95;125183;1102;104056;-77
2021/12/28 03:24:19;;;;;;;33.30;12.60;;;;;;;-3.56;83.67;100329.63;125183;1102;103948;-78
2021/12/28 03:26:54;;;;;;;31.80;12.60;;;;;;;-3.55;83.43;100328.84;125147;1102;102663;-78
2021/12/28 03:29:24;;;;;;;30.13;12.47;;;;;;;-3.55;82.37;100329.77;125076;1102;103922;-77
2021/12/28 03:31:53;;;;;;;36.10;13.83;;;;;;;-3.56;82.73;100338.22;125144;1102;104003;-77
2021/12/28 03:34:25;;;;;;;36.43;15.17;;;;;;;-3.54;82.60;100334.11;125202;1102;103926;-77
2021/12/28 03:36:55;;;;;;;36.57;15.63;;;;;;;-3.53;82.21;100322.20;125180;1102;104044;-78
2021/12/28 03:39:24;;;;;;;41.07;17.47;;;;;;;-3.54;82.43;100322.95;125077;1102;103934;-78
2021/12/28 03:41:54;;;;;;;52.90;21.33;;;;;;;-3.54;83.31;100313.59;125146;1102;111505;-77
2021/12/28 03:44:24;;;;;;;62.87;26.93;;;;;;;-3.52;82.77;100322.34;125174;1102;104095;-78
2021/12/28 03:46:53;;;;;;;72.30;27.60;;;;;;;-3.51;82.59;100310.41;125145;1102;104258;-78
2021/12/28 03:49:23;;;;;;;85.50;31.80;;;;;;;-3.47;82.90;100307.36;125190;1102;103970;-78
2021/12/28 03:51:53;;;;;;;67.30;24.53;;;;;;;-3.45;83.35;100313.52;125148;1102;103929;-78
2021/12/28 03:54:22;;;;;;;60.00;23.07;;;;;;;-3.44;83.20;100303.39;125188;1102;103985;-78
2021/12/28 03:56:53;;;;;;;41.37;16.23;;;;;;;-3.41;83.31;100309.55;125225;1102;104066;-77
2021/12/28 03:59:26;;;;;;;38.50;14.27;;;;;;;-3.45;82.39;100305.81;125227;1102;103929;-77
2021/12/28 04:01:55;;;;;;;34.27;12.90;;;;;;;-3.47;82.92;100315.05;125123;1102;103951;-77
2021/12/28 04:04:25;;;;;;;30.00;11.73;;;;;;;-3.46;82.70;100311.70;125209;1102;103934;-78
2021/12/28 04:06:55;;;;;;;32.97;12.63;;;;;;;-3.50;82.65;100309.66;125185;1102;104365;-77
2021/12/28 04:09:46;;;;;;;28.90;11.50;;;;;;;-3.50;82.50;100312.22;125176;1102;103958;-78
2021/12/28 04:12:16;;;;;;;29.37;12.47;;;;;;;-3.50;82.99;100307.09;124938;1102;103938;-79
2021/12/28 04:14:51;;;;;;;33.10;14.70;;;;;;;-3.48;82.89;100305.55;124904;1102;104117;-78
2021/12/28 04:17:21;;;;;;;35.65;15.90;;;;;;;-3.51;83.16;100308.73;125129;1102;103920;-78
2021/12/28 04:19:51;;;;;;;39.20;17.17;;;;;;;-3.51;83.26;100316.42;125123;1102;103925;-78
2021/12/28 04:22:23;;;;;;;41.23;16.30;;;;;;;-3.50;82.80;100312.22;125099;1102;104057;-78
2021/12/28 04:24:53;;;;;;;37.07;16.47;;;;;;;-3.51;82.87;100307.84;125145;1102;103929;-78
2021/12/28 04:27:26;;;;;;;38.00;17.20;;;;;;;-3.54;82.44;100305.89;125158;1102;104043;-78
2021/12/28 04:29:58;;;;;;;36.80;16.10;;;;;;;-3.56;82.47;100316.80;125196;1102;104388;-78
2021/12/28 04:32:27;;;;;;;35.53;15.73;;;;;;;-3.58;82.74;100320.88;125147;1102;103979;-78
2021/12/28 04:34:57;;;;;;;31.20;13.10;;;;;;;-3.56;83.18;100317.69;125182;1102;103981;-78
2021/12/28 04:37:27;;;;;;;31.30;12.33;;;;;;;-3.58;82.68;100311.54;125203;1102;103990;-78
2021/12/28 04:39:58;;;;;;;32.33;12.10;;;;;;;-3.58;83.31;100311.54;125123;1102;104054;-78
2021/12/28 04:42:29;;;;;;;29.43;12.77;;;;;;;-3.59;83.31;100313.97;125079;1102;104257;-77
2021/12/28 04:44:59;;;;;;;30.37;13.30;;;;;;;-3.58;82.79;100318.31;125093;1102;104357;-78
2021/12/28 04:47:28;;;;;;;29.10;12.03;;;;;;;-3.58;82.45;100314.11;125169;1102;103967;-77
2021/12/28 04:49:59;;;;;;;33.37;13.33;;;;;;;-3.60;82.57;100302.78;125021;1102;103960;-78
2021/12/28 04:52:35;;;;;;;31.50;12.77;;;;;;;-3.57;82.90;100309.86;125000;1102;104057;-78
2021/12/28 04:55:10;;;;;;;31.83;12.27;;;;;;;-3.56;83.13;100303.98;125050;1102;104075;-78
2021/12/28 04:57:41;;;;;;;36.47;14.17;;;;;;;-3.57;83.02;100302.17;125055;1102;104487;-78
2021/12/28 05:00:15;;;;;;;34.30;14.33;;;;;;;-3.58;82.46;100302.92;125113;1102;104009;-78
2021/12/28 05:02:45;;;;;;;34.73;14.30;;;;;;;-3.57;82.67;100302.17;125018;1102;104094;-78
2021/12/28 05:05:15;;;;;;;34.20;15.80;;;;;;;-3.58;82.71;100297.80;125133;1102;103961;-77
2021/12/28 05:07:45;;;;;;;37.63;16.17;;;;;;;-3.60;82.92;100289.96;125182;1101;103966;-77
2021/12/28 05:10:14;;;;;;;30.57;13.63;;;;;;;-3.61;82.70;100299.33;125168;1102;103954;-79
2021/12/28 05:12:44;;;;;;;32.50;12.77;;;;;;;-3.61;83.02;100301.01;125075;1102;103990;-79
2021/12/28 05:15:17;;;;;;;30.90;12.17;;;;;;;-3.61;82.89;100301.90;125169;1102;104021;-79
2021/12/28 05:17:47;;;;;;;30.55;11.45;;;;;;;-3.61;82.53;100288.19;125160;1102;104088;-78
2021/12/28 05:20:17;;;;;;;32.03;12.27;;;;;;;-3.61;83.18;100289.08;125191;1102;104007;-78
2021/12/28 05:22:46;;;;;;;28.47;11.43;;;;;;;-3.59;82.27;100293.45;125070;1102;103932;-78
2021/12/28 05:25:16;;;;;;;27.53;10.80;;;;;;;-3.57;82.39;100294.47;125201;1102;103939;-79
2021/12/28 05:27:46;;;;;;;26.60;11.63;;;;;;;-3.55;82.67;100292.93;125118;1102;103928;-79
2021/12/28 05:30:16;;;;;;;28.60;11.43;;;;;;;-3.51;82.64;100288.20;125072;1102;104072;-79
2021/12/28 05:32:46;;;;;;;29.10;10.83;;;;;;;-3.50;83.21;100284.89;125063;1102;103953;-79
2021/12/28 05:35:18;;;;;;;28.83;11.13;;;;;;;-3.50;82.86;100287.45;125123;1102;101476;-79
2021/12/28 05:37:48;;;;;;;27.73;11.87;;;;;;;-3.47;82.97;100297.98;125087;1102;103980;-79
2021/12/28 05:40:20;;;;;;;32.80;13.23;;;;;;;-3.47;82.25;100302.23;125034;1102;103964;-79
2021/12/28 05:42:50;;;;;;;30.47;10.77;;;;;;;-3.47;82.95;100297.09;124960;1102;105330;-79
2021/12/28 05:45:20;;;;;;;27.50;11.40;;;;;;;-3.46;83.50;100296.31;125031;1102;103983;-79
2021/12/28 05:47:49;;;;;;;27.03;11.27;;;;;;;-3.45;82.17;100306.70;125102;1102;103955;-78
2021/12/28 05:50:19;;;;;;;27.97;11.43;;;;;;;-3.43;82.22;100304.27;125024;1101;104120;-78
2021/12/28 05:52:49;;;;;;;30.97;12.00;;;;;;;-3.42;82.78;100300.95;125010;1102;104060;-78
2021/12/28 05:55:19;;;;;;;24.60;10.40;;;;;;;-3.41;82.24;100302.77;125042;1102;103925;-78
2021/12/28 05:57:48;;;;;;;28.77;11.23;;;;;;;-3.40;82.90;100301.98;125051;1102;104088;-79
2021/12/28 06:00:18;;;;;;;31.70;12.77;;;;;;;-3.40;82.81;100299.41;125117;1102;104044;-78
2021/12/28 06:02:49;;;;;;;29.67;12.43;;;;;;;-3.38;82.40;100303.03;125034;1102;104015;-78
2021/12/28 06:05:19;;;;;;;30.03;12.17;;;;;;;-3.36;82.77;100295.47;124910;1102;103922;-78
2021/12/28 06:07:48;;;;;;;34.40;13.97;;;;;;;-3.36;82.62;100306.62;125120;1101;103989;-78
2021/12/28 06:10:18;;;;;;;32.97;13.30;;;;;;;-3.36;82.26;100311.75;125137;1102;104054;-78
2021/12/28 06:12:48;;;;;;;37.63;16.13;;;;;;;-3.35;82.80;100311.00;125095;1102;103948;-78
2021/12/28 06:15:17;;;;;;;34.15;13.40;;;;;;;-3.36;82.91;100306.62;125031;1102;103926;-78
2021/12/28 06:17:47;;;;;;;31.40;11.77;;;;;;;-3.33;82.58;100309.45;124976;1102;104252;-78
2021/12/28 06:20:19;;;;;;;28.67;10.97;;;;;;;-3.34;83.05;100309.33;124979;1102;103992;-78
2021/12/28 06:22:49;;;;;;;30.70;11.37;;;;;;;-3.33;82.12;100311.14;125087;1102;103945;-77
2021/12/28 06:25:19;;;;;;;35.83;14.90;;;;;;;-3.32;82.37;100310.34;125095;1102;103951;-78
2021/12/28 06:27:49;;;;;;;35.60;15.37;;;;;;;-3.31;82.25;100310.48;125014;1102;103933;-78
2021/12/28 06:30:19;;;;;;;27.60;12.07;;;;;;;-3.28;83.04;100310.75;124984;1102;104149;-78
2021/12/28 06:32:48;;;;;;;26.73;12.43;;;;;;;-3.25;83.24;100317.83;124784;1102;103934;-78
2021/12/28 06:35:21;;;;;;;29.93;12.23;;;;;;;-3.27;82.22;100315.13;124796;1102;104025;-77
2021/12/28 06:37:53;;;;;;;27.97;11.10;;;;;;;-3.26;83.21;100316.02;124965;1102;103958;-77
2021/12/28 06:40:26;;;;;;;31.30;13.37;;;;;;;-3.28;82.23;100320.12;124948;1102;103960;-78
2021/12/28 06:42:56;;;;;;;33.63;13.40;;;;;;;-3.31;82.42;100320.75;124902;1102;103951;-78
2021/12/28 06:45:26;;;;;;;34.47;14.07;;;;;;;-3.27;82.35;100316.80;124958;1102;104056;-77
2021/12/28 06:47:56;;;;;;;32.23;12.87;;;;;;;-3.21;82.29;100329.25;124913;1102;103941;-78
2021/12/28 06:50:26;;;;;;;33.07;13.07;;;;;;;-3.18;82.95;100322.74;124972;1101;103993;-77
2021/12/28 06:52:56;;;;;;;34.47;14.70;;;;;;;-3.17;82.52;100324.52;125080;1102;103948;-78
2021/12/28 06:55:28;;;;;;;39.23;15.53;;;;;;;-3.13;83.19;100317.98;124945;1102;103953;-80
2021/12/28 06:57:58;;;;;;;33.23;14.07;;;;;;;-3.08;82.10;100312.48;124759;1102;103951;-79
2021/12/28 07:00:33;;;;;;;34.10;14.67;;;;;;;-3.08;83.03;100311.59;125024;1102;104088;-78
2021/12/28 07:03:06;;;;;;;27.27;12.77;;;;;;;-3.05;82.58;100311.86;125055;1102;103971;-77
2021/12/28 07:05:41;;;;;;;28.37;11.77;;;;;;;-3.00;83.34;100322.53;125044;1102;103967;-78
2021/12/28 07:08:11;;;;;;;29.40;11.10;;;;;;;-2.99;83.16;100320.09;125024;1102;103977;-77
2021/12/28 07:10:42;;;;;;;29.33;10.97;;;;;;;-2.98;82.21;100313.28;125050;1102;103996;-77
2021/12/28 07:13:12;;;;;;;30.40;11.10;;;;;;;-3.01;82.41;100308.77;124827;1102;104018;-77
2021/12/28 07:15:42;;;;;;;32.00;12.07;;;;;;;-3.02;82.32;100299.30;124987;1102;104493;-78
2021/12/28 07:18:15;;;;;;;30.87;12.50;;;;;;;-2.96;82.36;100306.59;125051;1102;103951;-78
2021/12/28 07:20:48;;;;;;;28.57;11.60;;;;;;;-2.96;83.14;100309.17;124957;1102;103963;-77
2021/12/28 07:23:18;;;;;;;36.47;12.33;;;;;;;-2.96;82.38;100314.30;124946;1102;104095;-78
2021/12/28 07:25:53;;;;;;;29.23;11.30;;;;;;;-2.90;82.31;100320.89;124943;1102;103955;-78
2021/12/28 07:28:24;;;;;;;28.97;12.00;;;;;;;-2.89;82.66;100332.94;124798;1102;103986;-78
2021/12/28 07:30:54;;;;;;;29.43;12.23;;;;;;;-2.85;82.44;100325.50;124703;1105;103957;-78
2021/12/28 07:33:24;;;;;;;29.67;11.87;;;;;;;-2.78;83.33;100325.27;124618;1105;104127;-77
2021/12/28 07:35:55;;;;;;;26.93;11.03;;;;;;;-2.76;82.62;100341.70;124662;1104;104047;-78
2021/12/28 07:38:27;;;;;;;26.73;10.53;;;;;;;-2.74;83.38;100333.37;124749;1105;104015;-78
2021/12/28 07:40:56;;;;;;;30.67;10.57;;;;;;;-2.72;82.17;100336.06;124649;1105;104066;-76
2021/12/28 07:43:29;;;;;;;26.57;9.40;;;;;;;-2.69;82.84;100335.44;124741;1105;103989;-77
2021/12/28 07:45:59;;;;;;;25.90;9.37;;;;;;;-2.68;82.61;100327.86;124737;1104;104062;-78
2021/12/28 07:48:30;;;;;;;29.23;10.67;;;;;;;-2.67;81.59;100326.19;124673;1105;104130;-77
2021/12/28 07:51:01;;;;;;;28.53;10.97;;;;;;;-2.67;82.69;100331.33;124798;1104;103938;-77
2021/12/28 07:53:32;;;;;;;27.07;10.73;;;;;;;-2.65;82.78;100327.20;124607;1105;104127;-76
2021/12/28 07:56:05;;;;;;;24.03;9.80;;;;;;;-2.63;81.61;100320.55;124654;1105;103935;-74
2021/12/28 07:58:35;;;;;;;27.67;11.47;;;;;;;-2.60;83.12;100325.92;124721;1105;104278;-79
2021/12/28 08:01:05;;;;;;;25.70;10.47;;;;;;;-2.57;82.13;100328.75;124659;1105;104082;-77
2021/12/28 08:03:37;;;;;;;25.60;9.50;;;;;;;-2.57;82.11;100326.17;124734;1105;104057;-78
2021/12/28 08:06:07;;;;;;;27.23;9.73;;;;;;;-2.56;82.36;100333.13;124635;1106;104105;-78
2021/12/28 08:08:41;;;;;;;27.60;10.57;;;;;;;-2.52;82.49;100337.77;124614;1105;103996;-77
2021/12/28 08:11:11;;;;;;;27.90;11.53;;;;;;;-2.52;82.60;100330.06;124741;1103;103928;-77
2021/12/28 08:13:42;;;;;;;25.57;10.23;;;;;;;-2.49;82.65;100339.67;124926;1102;103954;-77
2021/12/28 08:16:12;;;;;;;25.73;11.00;;;;;;;-2.51;82.16;100326.70;124945;1102;104079;-75
2021/12/28 08:18:42;;;;;;;27.37;10.80;;;;;;;-2.46;82.08;100311.67;124871;1102;104006;-77
2021/12/28 08:21:12;;;;;;;29.53;10.90;;;;;;;-2.39;82.39;100308.86;125073;1102;104037;-78
2021/12/28 08:23:45;;;;;;;30.40;13.07;;;;;;;-2.32;82.04;100313.75;124973;1102;103981;-77
2021/12/28 08:26:18;;;;;;;30.93;11.77;;;;;;;-2.27;81.72;100307.31;124906;1102;104005;-77
2021/12/28 08:28:48;;;;;;;24.72;10.50;;;;;;;-2.18;81.50;100318.36;125054;1102;104021;-76
2021/12/28 08:31:19;;;;;;;26.60;11.33;;;;;;;-2.13;81.96;100310.14;124771;1102;103963;-76
2021/12/28 08:33:51;;;;;;;26.50;10.87;;;;;;;-2.12;81.58;100304.20;124808;1102;103982;-80
2021/12/28 08:36:23;;;;;;;32.70;11.20;;;;;;;-2.09;81.55;100307.03;124570;1103;104098;-77
2021/12/28 08:38:53;;;;;;;24.77;9.10;;;;;;;-2.08;82.17;100303.70;124820;1102;103980;-77
2021/12/28 08:41:23;;;;;;;27.43;9.43;;;;;;;-2.04;81.45;100311.80;124933;1102;104773;-79
2021/12/28 08:44:00;;;;;;;26.00;10.13;;;;;;;-2.01;81.69;100308.55;124871;1102;104046;-78
2021/12/28 08:46:30;;;;;;;26.60;9.87;;;;;;;-1.96;82.06;100306.36;124639;1102;104045;-78
2021/12/28 08:49:02;;;;;;;27.43;10.77;;;;;;;-1.96;82.33;100302.14;124846;1101;103967;-78
2021/12/28 08:51:35;;;;;;;29.60;11.20;;;;;;;-1.91;81.53;100307.66;124743;1105;104021;-77
2021/12/28 08:54:06;;;;;;;27.30;11.63;;;;;;;-1.90;82.19;100310.36;124986;1102;103961;-78
2021/12/28 08:56:36;;;;;;;30.50;12.00;;;;;;;-1.87;81.60;100308.05;124954;1102;103961;-77
2021/12/28 08:59:07;;;;;;;30.50;12.33;;;;;;;-1.86;81.94;100294.38;124983;1102;103955;-77
2021/12/28 09:01:38;;;;;;;28.33;11.33;;;;;;;-1.81;82.17;100303.40;124856;1102;104044;-77
2021/12/28 09:04:09;;;;;;;30.67;12.73;;;;;;;-1.82;80.77;100298.13;124921;1102;104124;-77
2021/12/28 09:06:45;;;;;;;34.53;12.23;;;;;;;-1.82;82.00;100301.59;125096;1102;104017;-79
2021/12/28 09:09:15;;;;;;;30.10;12.93;;;;;;;-1.81;80.98;100298.25;124912;1102;104031;-78
2021/12/28 09:11:49;;;;;;;32.13;12.73;;;;;;;-1.79;81.95;100300.03;124971;1102;103988;-77
2021/12/28 09:14:20;;;;;;;33.73;14.20;;;;;;;-1.82;81.87;100290.41;124929;1102;104070;-78
2021/12/28 09:16:51;;;;;;;31.03;12.43;;;;;;;-1.81;81.23;100293.11;124809;1105;104101;-78
2021/12/28 09:19:23;;;;;;;30.30;12.73;;;;;;;-1.80;82.25;100294.00;124784;1105;104096;-77
2021/12/28 09:21:53;;;;;;;28.93;11.73;;;;;;;-1.75;81.59;100296.94;124701;1105;105954;-77
2021/12/28 09:24:26;;;;;;;31.30;13.20;;;;;;;-1.70;81.90;100295.63;124766;1105;104066;-78
2021/12/28 09:26:57;;;;;;;31.05;12.20;;;;;;;-1.68;82.15;100292.42;124704;1105;104147;-78
2021/12/28 09:29:31;;;;;;;30.20;12.00;;;;;;;-1.63;81.90;100296.25;124661;1106;104018;-78
2021/12/28 09:32:08;;;;;;;29.32;11.70;;;;;;;-1.54;81.25;100290.96;124762;1105;104258;-78
2021/12/28 09:34:40;;;;;;;27.33;12.20;;;;;;;-1.52;81.39;100289.39;124870;1105;103947;-79
2021/12/28 09:37:14;;;;;;;29.50;11.73;;;;;;;-1.52;81.34;100281.67;124841;1105;105557;-77
2021/12/28 09:39:48;;;;;;;30.47;11.60;;;;;;;-1.49;81.43;100292.22;124722;1105;104519;-78
2021/12/28 09:42:20;;;;;;;28.03;12.07;;;;;;;-1.44;82.05;100284.86;124888;1105;104009;-77
2021/12/28 09:44:59;;;;;;;31.63;12.57;;;;;;;-1.39;81.12;100280.08;124905;1105;104104;-78
2021/12/28 09:47:30;;;;;;;30.10;12.70;;;;;;;-1.39;80.99;100283.55;124901;1105;104386;-78
2021/12/28 09:50:11;;;;;;;35.00;13.20;;;;;;;-1.39;81.35;100280.08;124985;1105;104107;-78
2021/12/28 09:52:42;;;;;;;33.10;12.43;;;;;;;-1.33;81.76;100281.45;124854;1105;104092;-79
2021/12/28 09:55:21;;;;;;;29.50;11.43;;;;;;;-1.35;80.87;100284.71;124920;1102;104053;-78
2021/12/28 09:57:54;;;;;;;30.37;12.10;;;;;;;-1.36;80.71;100286.36;124820;1102;103957;-79
2021/12/28 10:00:27;;;;;;;34.43;12.80;;;;;;;-1.37;81.21;100286.23;124885;1102;103980;-76
2021/12/28 10:02:57;;;;;;;28.43;11.20;;;;;;;-1.38;80.61;100290.50;124731;1105;104031;-76
2021/12/28 10:05:33;;;;;;;30.83;12.83;;;;;;;-1.36;81.36;100288.05;125020;1102;104124;-75
2021/12/28 10:08:06;;;;;;;29.80;12.27;;;;;;;-1.35;80.92;100289.86;125046;1102;103990;-76
2021/12/28 10:10:45;;;;;;;32.60;13.30;;;;;;;-1.40;80.93;100293.72;125103;1102;103995;-76
2021/12/28 10:13:24;;;;;;;28.40;11.47;;;;;;;-1.43;80.49;100294.39;125026;1102;104575;-76
2021/12/28 10:15:57;;;;;;;31.33;13.13;;;;;;;-1.47;80.65;100288.08;124961;1102;103973;-75
2021/12/28 10:18:30;;;;;;;28.93;10.93;;;;;;;-1.48;80.46;100296.60;124800;1102;103958;-75
2021/12/28 10:21:03;;;;;;;30.27;12.20;;;;;;;-1.50;81.14;100289.52;125049;1102;103926;-77
2021/12/28 10:23:36;;;;;;;29.83;11.57;;;;;;;-1.47;80.79;100295.80;125045;1102;104088;-76
2021/12/28 10:26:15;;;;;;;31.33;12.33;;;;;;;-1.52;80.70;100291.08;124930;1102;103942;-76
2021/12/28 10:28:51;;;;;;;27.93;11.23;;;;;;;-1.50;80.97;100289.52;124748;1106;104021;-76
2021/12/28 10:31:24;;;;;;;30.73;11.90;;;;;;;-1.52;80.17;100278.22;124709;1102;103983;-76
2021/12/28 10:33:57;;;;;;;28.02;11.80;;;;;;;-1.48;80.84;100278.58;124962;1102;103964;-76
2021/12/28 10:36:37;;;;;;;30.00;11.20;;;;;;;-1.43;79.97;100275.45;124962;1102;103872;-76
2021/12/28 10:39:10;;;;;;;29.83;12.03;;;;;;;-1.41;80.36;100272.23;124991;1102;103974;-75
2021/12/28 10:41:43;;;;;;;30.57;11.90;;;;;;;-1.35;81.12;100261.55;124606;1102;103977;-75
2021/12/28 10:44:14;;;;;;;31.50;13.10;;;;;;;-1.29;80.85;100259.45;124671;1105;104114;-76
2021/12/28 10:46:47;;;;;;;27.37;12.03;;;;;;;-1.28;79.87;100263.80;124871;1102;103996;-76
2021/12/28 10:49:41;;;;;;;26.30;11.87;;;;;;;-1.23;81.03;100261.59;124874;1102;104012;-76
2021/12/28 10:52:26;;;;;;;29.75;13.35;;;;;;;-1.23;81.12;100257.36;124949;1102;103944;-76
2021/12/28 10:55:20;;;;;;;31.67;12.33;;;;;;;-1.25;79.55;100255.44;125099;1102;104013;-76
2021/12/28 10:57:51;;;;;;;32.53;12.80;;;;;;;-1.25;79.69;100253.75;124911;1102;103957;-78
2021/12/28 11:00:29;;;;;;;31.77;12.37;;;;;;;-1.24;80.25;100249.52;124869;1102;108402;-77
2021/12/28 11:03:30;;;;;;;32.17;14.10;;;;;;;-1.30;79.78;100250.81;124877;1102;103932;-77
2021/12/28 11:06:06;;;;;;;30.63;12.93;;;;;;;-1.35;79.89;100244.41;125145;1102;104152;-78
2021/12/28 11:08:39;;;;;;;31.97;11.90;;;;;;;-1.39;80.37;100244.05;124938;1102;104041;-79
2021/12/28 11:11:12;;;;;;;26.63;11.33;;;;;;;-1.40;79.99;100248.30;124880;1102;103961;-77
2021/12/28 11:13:42;;;;;;;28.07;11.37;;;;;;;-1.46;80.33;100242.67;124707;1102;103945;-76
2021/12/28 11:16:20;;;;;;;27.83;11.87;;;;;;;-1.45;80.52;100241.88;124869;1102;104014;-77
2021/12/28 11:18:53;;;;;;;28.83;11.60;;;;;;;-1.40;80.72;100242.23;124757;1102;104046;-78